createdAt,value
2022-09-28T00:02:22.102Z,98735.59
2022-09-28T00:04:49.980Z,98734.00
2022-09-28T00:07:19.132Z,98734.00
2022-09-28T00:09:46.894Z,98740.06
2022-09-28T00:12:15.185Z,98737.19
2022-09-28T00:14:44.557Z,98733.03
2022-09-28T00:17:12.766Z,98731.13
2022-09-28T00:19:40.996Z,98724.06
2022-09-28T00:22:08.779Z,98723.13
2022-09-28T00:24:37.988Z,98727.28
2022-09-28T00:27:06.118Z,98725.69
2022-09-28T00:29:34.957Z,98728.41
2022-09-28T00:32:03.962Z,98725.72
2022-09-28T00:34:33.318Z,98725.06
2022-09-28T00:37:01.581Z,98714.69
2022-09-28T00:39:31.519Z,98718.03
2022-09-28T00:42:00.802Z,98720.44
2022-09-28T00:44:49.774Z,98717.72
2022-09-28T00:47:20.818Z,98723.97
2022-09-28T00:49:50.882Z,98714.69
2022-09-28T00:52:21.088Z,98718.69
2022-09-28T00:54:49.155Z,98711.16
2022-09-28T00:57:18.508Z,98711.81
2022-09-28T00:59:46.551Z,98711.66
2022-09-28T01:02:14.979Z,98710.03
2022-09-28T01:04:42.822Z,98711.19
2022-09-28T01:07:11.093Z,98706.69
2022-09-28T01:09:40.619Z,98705.22
2022-09-28T01:12:08.644Z,98704.13
2022-09-28T01:14:38.252Z,98702.69
2022-09-28T01:17:09.330Z,98699.66
2022-09-28T01:20:05.417Z,98700.75
2022-09-28T01:22:46.950Z,98703.81
2022-09-28T01:25:25.684Z,98700.44
2022-09-28T01:27:57.226Z,98698.53
2022-09-28T01:30:25.295Z,98696.78
2022-09-28T01:32:56.963Z,98691.50
2022-09-28T01:35:28.016Z,98702.06
2022-09-28T01:37:57.977Z,98692.47
2022-09-28T01:40:27.255Z,98700.16
2022-09-28T01:43:00.011Z,98699.66
2022-09-28T01:45:34.280Z,98704.59
2022-09-28T01:48:04.381Z,98699.81
2022-09-28T01:50:36.136Z,98695.31
2022-09-28T01:53:08.110Z,98690.53
2022-09-28T01:55:38.287Z,98696.28
2022-09-28T01:58:11.492Z,98692.94
2022-09-28T02:00:42.023Z,98694.53
2022-09-28T02:03:13.446Z,98687.81
2022-09-28T02:05:43.950Z,98688.13
2022-09-28T02:08:15.013Z,98692.28
2022-09-28T02:10:44.830Z,98691.97
2022-09-28T02:13:17.254Z,98694.69
2022-09-28T02:15:47.782Z,98685.06
2022-09-28T02:18:15.786Z,98688.56
2022-09-28T02:20:47.714Z,98690.19
2022-09-28T02:23:16.312Z,98694.16
2022-09-28T02:25:46.010Z,98694.31
2022-09-28T02:28:15.217Z,98694.31
2022-09-28T02:30:43.987Z,98695.94
2022-09-28T02:33:13.809Z,98695.75
2022-09-28T02:35:42.655Z,98700.09
2022-09-28T02:38:11.319Z,98698.81
2022-09-28T02:40:39.689Z,98699.13
2022-09-28T02:43:13.116Z,98707.94
2022-09-28T02:45:49.002Z,98702.50
2022-09-28T02:48:41.264Z,98705.56
2022-09-28T02:51:16.384Z,98706.19
2022-09-28T02:53:54.385Z,98700.59
2022-09-28T02:56:34.324Z,98700.75
2022-09-28T02:59:07.923Z,98704.59
2022-09-28T03:01:41.992Z,98704.28
2022-09-28T03:04:13.299Z,98700.28
2022-09-28T03:06:44.805Z,98698.38
2022-09-28T03:09:18.689Z,98701.09
2022-09-28T03:11:48.548Z,98700.44
2022-09-28T03:14:16.896Z,98704.91
2022-09-28T03:16:46.459Z,98699.00
2022-09-28T03:19:15.100Z,98700.94
2022-09-28T03:21:43.106Z,98701.25
2022-09-28T03:24:11.375Z,98693.88
2022-09-28T03:26:39.436Z,98697.41
2022-09-28T03:29:07.652Z,98701.41
2022-09-28T03:31:36.028Z,98699.66
2022-09-28T03:34:05.353Z,98705.56
2022-09-28T03:36:33.193Z,98706.03
2022-09-28T03:39:01.118Z,98706.19
2022-09-28T03:41:29.152Z,98702.34
2022-09-28T03:43:57.007Z,98704.59
2022-09-28T03:46:24.826Z,98697.25
2022-09-28T03:48:52.616Z,98707.97
2022-09-28T03:51:21.755Z,98703.00
2022-09-28T03:53:49.699Z,98706.84
2022-09-28T03:56:17.709Z,98702.03
2022-09-28T03:58:45.567Z,98704.13
2022-09-28T04:01:17.499Z,98707.81
2022-09-28T04:03:46.188Z,98708.72
2022-09-28T04:06:14.329Z,98714.03
2022-09-28T04:08:44.091Z,98705.41
2022-09-28T04:11:12.308Z,98707.63
2022-09-28T04:13:40.294Z,98704.28
2022-09-28T04:16:08.429Z,98705.88
2022-09-28T04:18:36.373Z,98709.88
2022-09-28T04:21:06.587Z,98712.91
2022-09-28T04:23:34.812Z,98714.50
2022-09-28T04:26:04.472Z,98709.72
2022-09-28T04:28:50.185Z,98713.25
2022-09-28T04:31:19.236Z,98720.28
2022-09-28T04:33:47.315Z,98720.13
2022-09-28T04:36:15.126Z,98721.06
2022-09-28T04:38:53.283Z,98728.09
2022-09-28T04:41:23.138Z,98719.47
2022-09-28T04:43:51.144Z,98719.47
2022-09-28T04:46:19.471Z,98712.91
2022-09-28T04:48:47.327Z,98715.16
2022-09-28T04:51:15.374Z,98712.28
2022-09-28T04:53:43.319Z,98716.13
2022-09-28T04:56:12.158Z,98719.31
2022-09-28T04:58:41.735Z,98713.56
2022-09-28T05:01:11.733Z,98711.16
2022-09-28T05:03:39.626Z,98704.91
2022-09-28T05:06:07.963Z,98715.16
2022-09-28T05:08:36.259Z,98714.34
2022-09-28T05:11:05.402Z,98710.34
2022-09-28T05:13:35.544Z,98710.69
2022-09-28T05:16:05.715Z,98710.53
2022-09-28T05:18:33.754Z,98718.03
2022-09-28T05:21:02.000Z,98719.16
2022-09-28T05:23:29.810Z,98712.44
2022-09-28T05:25:57.700Z,98715.47
2022-09-28T05:28:27.111Z,98715.63
2022-09-28T05:30:58.948Z,98723.47
2022-09-28T05:33:28.703Z,98721.19
2022-09-28T05:36:00.883Z,98715.75
2022-09-28T05:38:29.725Z,98712.41
2022-09-28T05:40:57.659Z,98711.94
2022-09-28T05:43:25.560Z,98710.69
2022-09-28T05:45:55.851Z,98708.72
2022-09-28T05:48:31.432Z,98708.72
2022-09-28T05:51:00.753Z,98708.28
2022-09-28T05:53:28.564Z,98705.88
2022-09-28T05:56:00.763Z,98705.88
2022-09-28T05:58:29.060Z,98708.91
2022-09-28T06:00:59.380Z,98713.22
2022-09-28T06:03:27.237Z,98707.78
2022-09-28T06:05:55.114Z,98720.75
2022-09-28T06:08:24.304Z,98717.03
2022-09-28T06:10:52.323Z,98711.06
2022-09-28T06:13:20.625Z,98710.81
2022-09-28T06:15:48.450Z,98718.50
2022-09-28T06:18:16.260Z,98732.00
2022-09-28T06:20:44.146Z,98734.22
2022-09-28T06:23:12.709Z,98730.22
2022-09-28T06:25:42.255Z,98731.13
2022-09-28T06:28:11.237Z,98730.47
2022-09-28T06:30:39.477Z,98728.22
2022-09-28T06:33:08.352Z,98739.44
2022-09-28T06:35:36.374Z,98743.16
2022-09-28T06:38:04.154Z,98745.72
2022-09-28T06:40:32.373Z,98745.72
2022-09-28T06:43:02.568Z,98751.00
2022-09-28T06:45:31.080Z,98751.22
2022-09-28T06:47:59.916Z,98752.41
2022-09-28T06:50:28.512Z,98755.47
2022-09-28T06:52:57.090Z,98755.31
2022-09-28T06:55:25.667Z,98756.88
2022-09-28T06:58:05.150Z,98759.53
2022-09-28T07:00:34.581Z,98764.84
2022-09-28T07:03:03.075Z,98754.75
2022-09-28T07:05:34.742Z,98762.91
2022-09-28T07:08:03.397Z,98774.34
2022-09-28T07:10:31.885Z,98768.91
2022-09-28T07:13:02.493Z,98772.75
2022-09-28T07:15:32.156Z,98777.25
2022-09-28T07:18:03.343Z,98779.81
2022-09-28T07:20:40.783Z,98777.41
2022-09-28T07:23:18.812Z,98786.72
2022-09-28T07:25:50.144Z,98785.31
2022-09-28T07:28:18.157Z,98788.19
2022-09-28T07:30:47.554Z,98784.97
2022-09-28T07:33:16.071Z,98791.06
2022-09-28T07:35:50.866Z,98794.41
2022-09-28T07:38:19.346Z,98796.78
2022-09-28T07:41:05.280Z,98800.94
2022-09-28T07:43:33.535Z,98810.34
2022-09-28T07:46:03.335Z,98810.16
2022-09-28T07:48:37.686Z,98805.38
2022-09-28T07:51:05.818Z,98811.91
2022-09-28T07:53:33.668Z,98816.38
2022-09-28T07:56:05.621Z,98813.47
2022-09-28T07:58:34.237Z,98814.88
2022-09-28T08:01:06.416Z,98811.56
2022-09-28T08:03:34.906Z,98813.84
2022-09-28T08:06:03.769Z,98819.16
2022-09-28T08:08:31.648Z,98820.75
2022-09-28T08:10:59.526Z,98825.03
2022-09-28T08:13:27.515Z,98823.25
2022-09-28T08:15:56.448Z,98828.88
2022-09-28T08:18:25.629Z,98826.16
2022-09-28T08:21:10.774Z,98829.34
2022-09-28T08:23:38.834Z,98833.34
2022-09-28T08:26:07.129Z,98836.53
2022-09-28T08:28:36.599Z,98832.34
2022-09-28T08:31:07.390Z,98835.81
2022-09-28T08:33:36.809Z,98849.09
2022-09-28T08:36:05.973Z,98843.69
2022-09-28T08:38:33.802Z,98846.19
2022-09-28T08:41:05.129Z,98852.53
2022-09-28T08:43:42.564Z,98853.88
2022-09-28T08:46:12.516Z,98859.41
2022-09-28T08:49:13.448Z,98853.88
2022-09-28T08:51:44.715Z,98864.81
2022-09-28T08:54:18.774Z,98855.56
2022-09-28T08:56:49.788Z,98863.66
2022-09-28T08:59:19.781Z,98866.53
2022-09-28T09:01:49.209Z,98873.00
2022-09-28T09:04:18.830Z,98871.41
2022-09-28T09:06:55.966Z,98879.03
2022-09-28T09:09:31.200Z,98884.59
2022-09-28T09:12:05.465Z,98881.09
2022-09-28T09:14:51.306Z,98885.38
2022-09-28T09:17:23.722Z,98886.28
2022-09-28T09:19:55.120Z,98890.63
2022-09-28T09:22:29.468Z,98883.63
2022-09-28T09:25:02.613Z,98898.66
2022-09-28T09:27:52.018Z,98893.63
2022-09-28T09:30:21.931Z,98897.56
2022-09-28T09:33:08.251Z,98893.69
2022-09-28T09:35:54.144Z,98896.66
2022-09-28T09:38:38.923Z,98902.91
2022-09-28T09:41:14.840Z,98905.72
2022-09-28T09:43:58.616Z,98905.28
2022-09-28T09:46:33.291Z,98909.09
2022-09-28T09:49:06.421Z,98909.69
2022-09-28T09:51:38.800Z,98907.66
2022-09-28T09:54:13.519Z,98912.81
2022-09-28T09:56:44.770Z,98910.06
2022-09-28T09:59:15.023Z,98908.75
2022-09-28T10:01:43.213Z,98921.31
2022-09-28T10:04:16.530Z,98916.75
2022-09-28T10:06:44.671Z,98917.09
2022-09-28T10:09:18.588Z,98910.78
2022-09-28T10:11:49.814Z,98921.22
2022-09-28T10:14:19.972Z,98921.81
2022-09-28T10:16:49.000Z,98904.94
2022-09-28T10:19:17.714Z,98915.66
2022-09-28T10:21:46.839Z,98914.06
2022-09-28T10:24:19.434Z,98920.41
2022-09-28T10:26:49.611Z,98914.09
2022-09-28T10:29:18.426Z,98915.03
2022-09-28T10:31:48.206Z,98912.28
2022-09-28T10:34:17.421Z,98924.34
2022-09-28T10:36:47.737Z,98929.91
2022-09-28T10:39:36.139Z,98920.97
2022-09-28T10:42:07.125Z,98919.34
2022-09-28T10:44:36.220Z,98915.31
2022-09-28T10:47:07.902Z,98914.88
2022-09-28T10:49:43.206Z,98919.97
2022-09-28T10:52:33.301Z,98921.47
2022-09-28T10:55:03.029Z,98924.75
2022-09-28T10:57:34.528Z,98924.56
2022-09-28T11:00:03.258Z,98926.50
2022-09-28T11:02:35.676Z,98918.00
2022-09-28T11:05:05.610Z,98922.16
2022-09-28T11:07:34.905Z,98926.41
2022-09-28T11:10:04.334Z,98918.75
2022-09-28T11:12:36.373Z,98915.88
2022-09-28T11:15:06.637Z,98912.38
2022-09-28T11:17:38.493Z,98918.41
2022-09-28T11:20:29.171Z,98917.19
2022-09-28T11:22:57.762Z,98917.66
2022-09-28T11:25:28.857Z,98915.50
2022-09-28T11:27:57.993Z,98922.59
2022-09-28T11:30:27.917Z,98925.16
2022-09-28T11:32:57.914Z,98918.72
2022-09-28T11:35:29.040Z,98922.22
2022-09-28T11:38:05.529Z,98927.66
2022-09-28T11:40:44.675Z,98932.03
2022-09-28T11:43:19.936Z,98926.84
2022-09-28T11:45:52.592Z,98925.09
2022-09-28T11:48:24.427Z,98941.41
2022-09-28T11:50:53.981Z,98936.63
2022-09-28T11:53:24.271Z,98931.72
2022-09-28T11:55:55.944Z,98931.56
2022-09-28T11:58:28.703Z,98931.69
2022-09-28T12:01:00.488Z,98930.41
2022-09-28T12:03:32.112Z,98933.66
2022-09-28T12:06:01.690Z,98928.91
2022-09-28T12:08:31.015Z,98929.41
2022-09-28T12:11:02.202Z,98939.22
2022-09-28T12:13:34.256Z,98933.94
2022-09-28T12:18:54.362Z,98929.44
2022-09-28T12:21:33.185Z,98925.31
2022-09-28T12:24:04.536Z,98925.38
2022-09-28T12:26:38.127Z,98927.31
2022-09-28T12:29:07.924Z,98920.69
2022-09-28T12:31:38.660Z,98925.72
2022-09-28T12:34:06.624Z,98912.66
2022-09-28T12:36:42.205Z,98918.66
2022-09-28T12:39:30.714Z,98915.00
2022-09-28T12:42:14.360Z,98923.38
2022-09-28T12:44:48.332Z,98921.41
2022-09-28T12:47:27.937Z,98922.94
2022-09-28T12:53:08.313Z,98921.53
2022-09-28T12:55:56.483Z,98923.53
2022-09-28T12:58:43.207Z,98920.53
2022-09-28T13:01:21.934Z,98922.22
2022-09-28T13:04:03.769Z,98924.31
2022-09-28T13:06:38.805Z,98923.84
2022-09-28T13:09:19.888Z,98926.25
2022-09-28T13:11:56.229Z,98914.13
2022-09-28T13:14:34.396Z,98917.16
2022-09-28T13:17:06.006Z,98917.16
2022-09-28T13:19:36.199Z,98920.22
2022-09-28T13:22:10.466Z,98924.03
2022-09-28T13:24:43.748Z,98914.97
2022-09-28T13:27:15.157Z,98916.72
2022-09-28T13:29:44.053Z,98907.22
2022-09-28T13:32:13.869Z,98909.25
2022-09-28T13:34:41.695Z,98904.03
2022-09-28T13:37:11.215Z,98905.53
2022-09-28T13:39:48.640Z,98910.09
2022-09-28T13:42:25.503Z,98907.25
2022-09-28T13:45:02.924Z,98907.84
2022-09-28T13:47:50.353Z,98905.00
2022-09-28T13:50:22.082Z,98905.53
2022-09-28T13:52:53.084Z,98907.50
2022-09-28T13:55:27.222Z,98903.88
2022-09-28T13:57:56.881Z,98905.53
2022-09-28T14:00:28.139Z,98907.31
2022-09-28T14:03:01.490Z,98904.13
2022-09-28T14:05:36.806Z,98907.59
2022-09-28T14:08:25.740Z,98903.41
2022-09-28T14:10:54.345Z,98900.16
2022-09-28T14:13:40.824Z,98908.84
2022-09-28T14:16:22.022Z,98908.25
2022-09-28T14:18:53.303Z,98910.56
2022-09-28T14:21:29.389Z,98918.47
2022-09-28T14:24:04.546Z,98927.50
2022-09-28T14:26:47.377Z,98914.94
2022-09-28T14:29:28.665Z,98924.75
2022-09-28T14:31:58.184Z,98921.88
2022-09-28T14:34:32.122Z,98921.56
2022-09-28T14:37:18.468Z,98930.06
2022-09-28T14:40:04.741Z,98925.72
2022-09-28T14:42:32.791Z,98926.34
2022-09-28T14:45:19.919Z,98916.06
2022-09-28T14:48:06.332Z,98924.47
2022-09-28T14:50:35.678Z,98915.44
2022-09-28T14:53:05.438Z,98924.50
2022-09-28T14:55:35.769Z,98921.84
2022-09-28T14:58:04.317Z,98914.75
2022-09-28T15:00:32.241Z,98917.69
2022-09-28T15:03:01.606Z,98916.84
2022-09-28T15:05:31.466Z,98926.59
2022-09-28T15:08:01.774Z,98922.88
2022-09-28T15:10:32.333Z,98924.31
2022-09-28T15:13:02.233Z,98933.25
2022-09-28T15:15:32.855Z,98927.25
2022-09-28T15:18:28.391Z,98937.00
2022-09-28T15:20:56.686Z,98933.84
2022-09-28T15:23:27.576Z,98942.13
2022-09-28T15:25:55.974Z,98933.88
2022-09-28T15:28:25.095Z,98943.72
2022-09-28T15:30:59.665Z,98944.75
2022-09-28T15:33:51.313Z,98939.13
2022-09-28T15:36:21.305Z,98942.78
2022-09-28T15:38:54.832Z,98950.19
2022-09-28T15:41:24.849Z,98952.75
2022-09-28T15:44:08.389Z,98948.88
2022-09-28T15:46:37.887Z,98951.47
2022-09-28T15:49:06.076Z,98954.66
2022-09-28T15:51:46.828Z,98956.59
2022-09-28T15:54:19.542Z,98957.03
2022-09-28T15:56:52.285Z,98958.88
2022-09-28T15:59:26.159Z,98961.06
2022-09-28T16:02:08.073Z,98971.81
2022-09-28T16:04:38.302Z,98970.63
2022-09-28T16:07:17.978Z,98975.53
2022-09-28T16:09:58.513Z,98975.31
2022-09-28T16:12:31.796Z,98975.88
2022-09-28T16:15:04.403Z,98981.91
2022-09-28T16:17:33.529Z,98979.41
2022-09-28T16:20:03.132Z,98974.44
2022-09-28T16:22:32.658Z,98981.97
2022-09-28T16:25:02.181Z,98988.47
2022-09-28T16:27:31.751Z,98993.38
2022-09-28T16:30:05.109Z,98993.97
2022-09-28T16:32:37.504Z,98995.34
2022-09-28T16:35:22.068Z,98996.72
2022-09-28T16:37:55.546Z,98998.31
2022-09-28T16:40:24.901Z,98999.13
2022-09-28T16:42:55.081Z,99006.88
2022-09-28T16:45:24.270Z,99004.34
2022-09-28T16:47:52.981Z,99001.25
2022-09-28T16:50:21.629Z,99013.00
2022-09-28T16:53:07.694Z,99017.81
2022-09-28T16:55:40.862Z,99015.28
2022-09-28T16:58:09.352Z,99016.75
2022-09-28T17:00:37.181Z,99021.41
2022-09-28T17:03:12.082Z,99024.25
2022-09-28T17:05:40.142Z,99028.47
2022-09-28T17:08:08.132Z,99035.41
2022-09-28T17:11:02.108Z,99032.41
2022-09-28T17:13:31.299Z,99034.75
2022-09-28T17:15:59.130Z,99034.63
2022-09-28T17:18:26.950Z,99043.06
2022-09-28T17:20:56.661Z,99034.94
2022-09-28T17:23:24.561Z,99046.34
2022-09-28T17:25:55.520Z,99044.00
2022-09-28T17:28:25.043Z,99038.38
2022-09-28T17:30:53.077Z,99035.03
2022-09-28T17:33:21.238Z,99044.34
2022-09-28T17:35:49.271Z,99042.00
2022-09-28T17:38:17.246Z,99047.31
2022-09-28T17:40:45.472Z,99053.91
2022-09-28T17:43:14.778Z,99049.13
2022-09-28T17:45:42.609Z,99051.84
2022-09-28T17:48:13.217Z,99055.56
2022-09-28T17:50:46.241Z,99054.44
2022-09-28T17:53:15.033Z,99058.22
2022-09-28T17:55:43.894Z,99057.88
2022-09-28T17:58:17.903Z,99064.22
2022-09-28T18:00:46.832Z,99063.06
2022-09-28T18:03:16.398Z,99060.09
2022-09-28T18:05:44.457Z,99062.34
2022-09-28T18:08:14.139Z,99061.41
2022-09-28T18:10:42.010Z,99064.81
2022-09-28T18:13:10.265Z,99065.81
2022-09-28T18:15:39.548Z,99062.56
2022-09-28T18:18:09.422Z,99064.09
2022-09-28T18:20:37.588Z,99066.22
2022-09-28T18:23:05.926Z,99069.59
2022-09-28T18:25:33.987Z,99073.31
2022-09-28T18:28:02.090Z,99072.03
2022-09-28T18:30:29.910Z,99070.25
2022-09-28T18:32:59.041Z,99078.28
2022-09-28T18:35:26.843Z,99074.56
2022-09-28T18:37:54.773Z,99070.25
2022-09-28T18:40:22.760Z,99077.16
2022-09-28T18:42:50.686Z,99072.34
2022-09-28T18:45:18.858Z,99074.94
2022-09-28T18:47:46.787Z,99069.94
2022-09-28T18:50:16.258Z,99076.06
2022-09-28T18:52:45.147Z,99078.19
2022-09-28T18:55:13.229Z,99074.03
2022-09-28T18:57:41.205Z,99077.72
2022-09-28T19:00:10.266Z,99081.59
2022-09-28T19:02:38.731Z,99082.91
2022-09-28T19:05:07.095Z,99078.13
2022-09-28T19:07:36.225Z,99082.94
2022-09-28T19:10:04.278Z,99082.16
2022-09-28T19:12:33.013Z,99079.13
2022-09-28T19:15:00.972Z,99077.19
2022-09-28T19:17:29.007Z,99078.84
2022-09-28T19:19:56.797Z,99075.94
2022-09-28T19:22:24.551Z,99082.84
2022-09-28T19:24:53.706Z,99085.88
2022-09-28T19:27:21.668Z,99084.91
2022-09-28T19:29:50.349Z,99092.13
2022-09-28T19:32:18.136Z,99086.19
2022-09-28T19:34:45.907Z,99095.16
2022-09-28T19:37:13.654Z,99101.09
2022-09-28T19:39:41.596Z,99097.06
2022-09-28T19:42:10.709Z,99108.44
2022-09-28T19:44:39.144Z,99112.78
2022-09-28T19:47:08.790Z,99116.75
2022-09-28T19:49:37.589Z,99115.63
2022-09-28T19:52:15.336Z,99115.94
2022-09-28T19:54:44.782Z,99121.22
2022-09-28T19:57:15.577Z,99120.25
2022-09-28T19:59:43.376Z,99126.13
2022-09-28T20:02:11.488Z,99127.75
2022-09-28T20:04:39.265Z,99134.16
2022-09-28T20:07:07.183Z,99140.59
2022-09-28T20:09:34.969Z,99146.53
2022-09-28T20:12:03.026Z,99140.44
2022-09-28T20:14:38.025Z,99145.25
2022-09-28T20:17:07.475Z,99143.66
2022-09-28T20:19:35.972Z,99139.19
2022-09-28T20:22:03.929Z,99147.81
2022-09-28T20:24:32.013Z,99137.84
2022-09-28T20:27:01.110Z,99147.75
2022-09-28T20:29:29.174Z,99147.97
2022-09-28T20:31:58.878Z,99137.38
2022-09-28T20:34:26.722Z,99155.56
2022-09-28T20:36:54.498Z,99147.84
2022-09-28T20:39:22.249Z,99152.97
2022-09-28T20:41:50.185Z,99152.78
2022-09-28T20:44:18.100Z,99157.13
2022-09-28T20:46:46.139Z,99150.19
2022-09-28T20:49:15.294Z,99150.19
2022-09-28T20:51:43.087Z,99157.53
2022-09-28T20:54:10.983Z,99159.50
2022-09-28T20:56:39.189Z,99161.34
2022-09-28T20:59:08.134Z,99165.31
2022-09-28T21:01:36.302Z,99162.63
2022-09-28T21:04:05.508Z,99163.75
2022-09-28T21:06:35.707Z,99166.66
2022-09-28T21:09:04.142Z,99168.03
2022-09-28T21:11:32.086Z,99166.53
2022-09-28T21:14:01.005Z,99163.19
2022-09-28T21:16:29.491Z,99168.22
2022-09-28T21:18:57.419Z,99166.47
2022-09-28T21:21:25.625Z,99167.09
2022-09-28T21:23:55.120Z,99172.56
2022-09-28T21:26:25.628Z,99171.47
2022-09-28T21:28:53.804Z,99167.78
2022-09-28T21:31:27.528Z,99174.94
2022-09-28T21:33:56.354Z,99178.47
2022-09-28T21:36:24.404Z,99173.47
2022-09-28T21:38:52.207Z,99171.53
2022-09-28T21:41:21.366Z,99177.28
2022-09-28T21:43:49.239Z,99175.91
2022-09-28T21:46:17.535Z,99176.41
2022-09-28T21:48:45.472Z,99177.16
2022-09-28T21:51:14.565Z,99181.16
2022-09-28T21:53:42.535Z,99171.09
2022-09-28T21:56:11.317Z,99173.16
2022-09-28T21:58:40.782Z,99171.38
2022-09-28T22:01:09.721Z,99173.59
2022-09-28T22:03:37.649Z,99173.19
2022-09-28T22:06:05.979Z,99179.22
2022-09-28T22:08:34.263Z,99177.59
2022-09-28T22:11:03.247Z,99179.63
2022-09-28T22:13:31.957Z,99184.06
2022-09-28T22:16:01.390Z,99183.50
2022-09-28T22:18:30.432Z,99191.13
2022-09-28T22:21:01.477Z,99187.75
2022-09-28T22:23:29.842Z,99184.34
2022-09-28T22:26:01.113Z,99183.53
2022-09-28T22:28:29.664Z,99184.94
2022-09-28T22:30:57.954Z,99190.78
2022-09-28T22:33:27.387Z,99193.00
2022-09-28T22:35:55.622Z,99182.75
2022-09-28T22:38:24.369Z,99189.41
2022-09-28T22:40:54.412Z,99183.50
2022-09-28T22:43:23.278Z,99191.75
2022-09-28T22:45:51.209Z,99183.00
2022-09-28T22:48:18.999Z,99189.72
2022-09-28T22:50:51.780Z,99190.13
2022-09-28T22:53:19.992Z,99190.00
2022-09-28T22:55:47.750Z,99190.63
2022-09-28T22:58:15.659Z,99191.44
2022-09-28T23:00:44.390Z,99193.13
2022-09-28T23:03:12.330Z,99202.69
2022-09-28T23:05:40.345Z,99192.22
2022-09-28T23:08:10.478Z,99190.19
2022-09-28T23:10:38.284Z,99192.03
2022-09-28T23:13:06.025Z,99190.50
2022-09-28T23:15:33.780Z,99192.13
2022-09-28T23:18:01.692Z,99185.28
2022-09-28T23:20:29.480Z,99185.09
2022-09-28T23:22:57.281Z,99190.22
2022-09-28T23:25:26.504Z,99187.19
2022-09-28T23:27:54.253Z,99184.88
2022-09-28T23:30:22.947Z,99190.97
2022-09-28T23:32:52.323Z,99191.56
2022-09-28T23:35:20.131Z,99194.03
2022-09-28T23:37:50.202Z,99187.88
2022-09-28T23:40:18.132Z,99191.41
2022-09-28T23:42:47.418Z,99185.75
2022-09-28T23:45:15.208Z,99185.66
2022-09-28T23:47:42.983Z,99183.25
2022-09-28T23:50:10.745Z,99179.41
2022-09-28T23:52:38.530Z,99185.25
2022-09-28T23:55:06.926Z,99181.75
2022-09-28T23:57:34.793Z,99184.75
